createdAt,value
2023-03-05T00:00:41.541Z,3.14
2023-03-05T00:01:43.275Z,3.13
2023-03-05T00:02:45.044Z,3.13
2023-03-05T00:03:46.825Z,3.12
2023-03-05T00:04:48.422Z,3.11
2023-03-05T00:05:50.145Z,3.11
2023-03-05T00:06:51.944Z,3.11
2023-03-05T00:07:53.609Z,3.1
2023-03-05T00:08:55.321Z,3.11
2023-03-05T00:09:57.068Z,3.11
2023-03-05T00:10:58.756Z,3.1
2023-03-05T00:12:00.495Z,3.1
2023-03-05T00:13:02.208Z,3.09
2023-03-05T00:14:04.062Z,3.09
2023-03-05T00:15:05.668Z,3.07
2023-03-05T00:16:07.485Z,3.08
2023-03-05T00:17:09.170Z,3.08
2023-03-05T00:18:10.864Z,3.08
2023-03-05T00:19:12.619Z,3.07
2023-03-05T00:20:14.350Z,3.06
2023-03-05T00:21:16.081Z,3.06
2023-03-05T00:22:17.884Z,3.05
2023-03-05T00:23:19.553Z,3.06
2023-03-05T00:24:21.290Z,3.05
2023-03-05T00:25:23.039Z,3.05
2023-03-05T00:26:24.755Z,3.04
2023-03-05T00:27:26.484Z,3.05
2023-03-05T00:28:28.207Z,3.04
2023-03-05T00:29:31.677Z,3.04
2023-03-05T00:30:31.688Z,3.04
2023-03-05T00:31:33.512Z,3.05
2023-03-05T00:32:35.208Z,3.05
2023-03-05T00:33:36.888Z,3.05
2023-03-05T00:34:38.752Z,3.05
2023-03-05T00:35:40.443Z,3.04
2023-03-05T00:36:42.094Z,3.05
2023-03-05T00:37:44.036Z,3.04
2023-03-05T00:38:45.545Z,3.04
2023-03-05T00:39:47.297Z,3.04
2023-03-05T00:40:49.021Z,3.04
2023-03-05T00:41:50.774Z,3.03
2023-03-05T00:42:52.481Z,3.03
2023-03-05T00:43:54.256Z,3.02
2023-03-05T00:44:55.947Z,3.03
2023-03-05T00:45:57.688Z,3.02
2023-03-05T00:46:59.414Z,3.01
2023-03-05T00:48:01.247Z,3.01
2023-03-05T00:49:02.923Z,3.01
2023-03-05T00:50:04.644Z,3
2023-03-05T00:51:06.386Z,3
2023-03-05T00:52:08.308Z,2.99
2023-03-05T00:53:09.833Z,2.98
2023-03-05T00:54:11.565Z,2.98
2023-03-05T00:55:13.292Z,2.95
2023-03-05T00:56:15.029Z,2.95
2023-03-05T00:57:16.766Z,2.95
2023-03-05T00:58:18.502Z,2.93
2023-03-05T00:59:20.232Z,2.93
2023-03-05T01:00:21.983Z,2.92
2023-03-05T01:01:23.843Z,2.92
2023-03-05T01:03:39.817Z,2.9
2023-03-05T01:04:41.550Z,2.89
2023-03-05T01:05:43.431Z,2.89
2023-03-05T01:06:45.001Z,2.88
2023-03-05T01:07:46.740Z,2.88
2023-03-05T01:08:48.468Z,2.87
2023-03-05T01:09:50.188Z,2.86
2023-03-05T01:10:52.146Z,2.86
2023-03-05T01:11:53.661Z,2.85
2023-03-05T01:12:55.443Z,2.85
2023-03-05T01:13:57.147Z,2.84
2023-03-05T01:14:58.882Z,2.85
2023-03-05T01:16:00.656Z,2.84
2023-03-05T01:17:02.331Z,2.84
2023-03-05T01:18:04.042Z,2.83
2023-03-05T01:19:05.793Z,2.84
2023-03-05T01:20:07.543Z,2.84
2023-03-05T01:21:09.515Z,2.85
2023-03-05T01:22:11.097Z,2.85
2023-03-05T01:23:12.765Z,2.86
2023-03-05T01:24:14.477Z,2.86
2023-03-05T01:25:16.213Z,2.86
2023-03-05T01:26:17.943Z,2.86
2023-03-05T01:27:19.678Z,2.87
2023-03-05T01:28:21.397Z,2.87
2023-03-05T01:29:23.124Z,2.86
2023-03-05T01:30:24.876Z,2.86
2023-03-05T01:31:26.688Z,2.86
2023-03-05T01:32:28.427Z,2.86
2023-03-05T01:33:30.065Z,2.86
2023-03-05T01:34:31.789Z,2.87
2023-03-05T01:35:33.569Z,2.87
2023-03-05T01:36:35.272Z,2.87
2023-03-05T01:37:37.012Z,2.87
2023-03-05T01:38:38.730Z,2.87
2023-03-05T01:39:40.480Z,2.86
2023-03-05T01:40:42.211Z,2.86
2023-03-05T01:41:43.950Z,2.87
2023-03-05T01:42:45.799Z,2.86
2023-03-05T01:43:48.411Z,2.86
2023-03-05T01:44:49.164Z,2.85
2023-03-05T01:45:50.877Z,2.85
2023-03-05T01:46:52.606Z,2.85
2023-03-05T01:47:54.315Z,2.83
2023-03-05T01:48:56.043Z,2.83
2023-03-05T01:49:57.806Z,2.81
2023-03-05T01:50:59.561Z,2.82
2023-03-05T01:52:01.306Z,2.81
2023-03-05T01:53:03.002Z,2.8
2023-03-05T01:54:04.731Z,2.79
2023-03-05T01:55:06.478Z,2.78
2023-03-05T01:56:08.212Z,2.78
2023-03-05T01:57:09.967Z,2.78
2023-03-05T01:58:11.674Z,2.77
2023-03-05T01:59:13.384Z,2.76
2023-03-05T02:00:15.142Z,2.75
2023-03-05T02:01:16.937Z,2.75
2023-03-05T02:02:18.636Z,2.74
2023-03-05T02:03:20.328Z,2.73
2023-03-05T02:04:22.071Z,2.73
2023-03-05T02:05:23.798Z,2.72
2023-03-05T02:06:25.539Z,2.71
2023-03-05T02:07:27.298Z,2.71
2023-03-05T02:08:29.018Z,2.71
2023-03-05T02:09:30.748Z,2.71
2023-03-05T02:10:32.504Z,2.72
2023-03-05T02:11:34.188Z,2.72
2023-03-05T02:12:35.976Z,2.71
2023-03-05T02:13:37.670Z,2.71
2023-03-05T02:14:39.430Z,2.71
2023-03-05T02:15:41.148Z,2.71
2023-03-05T02:16:42.945Z,2.71
2023-03-05T02:17:44.602Z,2.71
2023-03-05T02:18:46.345Z,2.7
2023-03-05T02:19:48.069Z,2.7
2023-03-05T02:20:50.035Z,2.7
2023-03-05T02:21:51.542Z,2.68
2023-03-05T02:22:53.310Z,2.68
2023-03-05T02:23:55.006Z,2.69
2023-03-05T02:24:56.752Z,2.67
2023-03-05T02:25:58.467Z,2.67
2023-03-05T02:27:00.222Z,2.66
2023-03-05T02:28:01.969Z,2.66
2023-03-05T02:29:03.678Z,2.65
2023-03-05T02:30:05.404Z,2.63
2023-03-05T02:31:07.175Z,2.63
2023-03-05T02:32:09.048Z,2.62
2023-03-05T02:33:10.626Z,2.63
2023-03-05T02:34:12.369Z,2.61
2023-03-05T02:35:14.087Z,2.6
2023-03-05T02:36:15.904Z,2.6
2023-03-05T02:37:17.564Z,2.59
2023-03-05T02:38:19.325Z,2.58
2023-03-05T02:39:21.024Z,2.58
2023-03-05T02:40:22.770Z,2.57
2023-03-05T02:41:24.503Z,2.57
2023-03-05T02:42:26.213Z,2.56
2023-03-05T02:43:27.961Z,2.55
2023-03-05T02:44:29.685Z,2.55
2023-03-05T02:45:31.466Z,2.54
2023-03-05T02:46:33.183Z,2.53
2023-03-05T02:47:34.894Z,2.53
2023-03-05T02:48:36.651Z,2.51
2023-03-05T02:49:38.360Z,2.51
2023-03-05T02:50:40.102Z,2.5
2023-03-05T02:51:41.833Z,2.49
2023-03-05T02:52:43.556Z,2.47
2023-03-05T02:53:45.286Z,2.47
2023-03-05T02:54:47.049Z,2.45
2023-03-05T02:55:48.757Z,2.45
2023-03-05T02:56:50.528Z,2.44
2023-03-05T02:57:52.225Z,2.43
2023-03-05T02:58:54.974Z,2.42
2023-03-05T02:59:55.770Z,2.42
2023-03-05T03:00:57.474Z,2.41
2023-03-05T03:01:59.187Z,2.41
2023-03-05T03:03:00.915Z,2.39
2023-03-05T03:04:02.641Z,2.39
2023-03-05T03:05:04.381Z,2.37
2023-03-05T03:06:06.117Z,2.37
2023-03-05T03:07:07.853Z,2.37
2023-03-05T03:08:09.584Z,2.36
2023-03-05T03:09:11.309Z,2.37
2023-03-05T03:10:13.055Z,2.36
2023-03-05T03:11:14.789Z,2.36
2023-03-05T03:12:16.650Z,2.36
2023-03-05T03:13:18.242Z,2.35
2023-03-05T03:14:20.007Z,2.37
2023-03-05T03:15:21.731Z,2.35
2023-03-05T03:16:23.473Z,2.36
2023-03-05T03:17:25.192Z,2.36
2023-03-05T03:18:26.919Z,2.36
2023-03-05T03:19:28.668Z,2.36
2023-03-05T03:20:30.388Z,2.36
2023-03-05T03:21:32.139Z,2.36
2023-03-05T03:22:33.874Z,2.37
2023-03-05T03:23:35.582Z,2.38
2023-03-05T03:24:37.353Z,2.38
2023-03-05T03:25:39.058Z,2.38
2023-03-05T03:26:40.816Z,2.39
2023-03-05T03:27:42.513Z,2.39
2023-03-05T03:28:44.312Z,2.39
2023-03-05T03:29:46.014Z,2.4
2023-03-05T03:30:47.765Z,2.41
2023-03-05T03:31:49.465Z,2.41
2023-03-05T03:32:51.205Z,2.41
2023-03-05T03:33:52.920Z,2.41
2023-03-05T03:34:54.693Z,2.42
2023-03-05T03:35:56.457Z,2.41
2023-03-05T03:36:58.137Z,2.41
2023-03-05T03:37:59.869Z,2.42
2023-03-05T03:39:01.620Z,2.41
2023-03-05T03:40:03.370Z,2.41
2023-03-05T03:41:05.066Z,2.41
2023-03-05T03:42:06.802Z,2.39
2023-03-05T03:43:08.552Z,2.39
2023-03-05T03:44:10.251Z,2.38
2023-03-05T03:45:11.983Z,2.37
2023-03-05T03:46:13.739Z,2.37
2023-03-05T03:47:15.615Z,2.36
2023-03-05T03:48:17.221Z,2.35
2023-03-05T03:49:19.172Z,2.34
2023-03-05T03:50:20.681Z,2.34
2023-03-05T03:51:22.439Z,2.34
2023-03-05T03:52:24.208Z,2.32
2023-03-05T03:53:25.847Z,2.32
2023-03-05T03:54:27.617Z,2.32
2023-03-05T03:55:29.345Z,2.31
2023-03-05T03:56:31.085Z,2.3
2023-03-05T03:57:32.814Z,2.29
2023-03-05T03:58:34.543Z,2.29
2023-03-05T03:59:36.265Z,2.28
2023-03-05T04:00:38.060Z,2.28
2023-03-05T04:01:39.733Z,2.27
2023-03-05T04:02:41.514Z,2.27
2023-03-05T04:03:43.213Z,2.27
2023-03-05T04:04:44.923Z,2.26
2023-03-05T04:05:46.666Z,2.26
2023-03-05T04:06:48.405Z,2.25
2023-03-05T04:07:50.122Z,2.26
2023-03-05T04:08:51.888Z,2.26
2023-03-05T04:09:53.625Z,2.27
2023-03-05T04:10:55.345Z,2.26
2023-03-05T04:11:57.094Z,2.27
2023-03-05T04:12:58.798Z,2.26
2023-03-05T04:14:00.766Z,2.26
2023-03-05T04:15:02.284Z,2.27
2023-03-05T04:16:04.101Z,2.26
2023-03-05T04:17:05.751Z,2.26
2023-03-05T04:18:07.505Z,2.27
2023-03-05T04:19:09.214Z,2.27
2023-03-05T04:20:11.314Z,2.28
2023-03-05T04:21:12.703Z,2.29
2023-03-05T04:22:14.391Z,2.3
2023-03-05T04:23:16.140Z,2.31
2023-03-05T04:24:17.866Z,2.31
2023-03-05T04:25:19.607Z,2.31
2023-03-05T04:26:21.352Z,2.31
2023-03-05T04:27:23.096Z,2.31
2023-03-05T04:28:24.791Z,2.32
2023-03-05T04:29:26.517Z,2.33
2023-03-05T04:30:28.317Z,2.33
2023-03-05T04:31:30.134Z,2.32
2023-03-05T04:32:31.797Z,2.34
2023-03-05T04:33:33.466Z,2.33
2023-03-05T04:34:35.249Z,2.33
2023-03-05T04:35:37.009Z,2.34
2023-03-05T04:36:38.678Z,2.34
2023-03-05T04:37:40.384Z,2.35
2023-03-05T04:38:42.144Z,2.34
2023-03-05T04:39:43.864Z,2.34
2023-03-05T04:40:45.617Z,2.34
2023-03-05T04:41:47.339Z,2.34
2023-03-05T04:42:49.076Z,2.33
2023-03-05T04:43:50.820Z,2.34
2023-03-05T04:44:52.554Z,2.33
2023-03-05T04:45:54.271Z,2.33
2023-03-05T04:46:56.138Z,2.33
2023-03-05T04:47:57.770Z,2.32
2023-03-05T04:48:59.484Z,2.32
2023-03-05T04:50:01.194Z,2.31
2023-03-05T04:51:02.959Z,2.31
2023-03-05T04:52:04.680Z,2.29
2023-03-05T04:53:06.424Z,2.29
2023-03-05T04:54:08.135Z,2.28
2023-03-05T04:55:09.874Z,2.26
2023-03-05T04:56:11.617Z,2.26
2023-03-05T04:57:13.351Z,2.25
2023-03-05T04:58:15.047Z,2.24
2023-03-05T04:59:16.821Z,2.23
2023-03-05T05:00:18.546Z,2.22
2023-03-05T05:01:20.331Z,2.21
2023-03-05T05:02:22.053Z,2.2
2023-03-05T05:03:23.765Z,2.19
2023-03-05T05:04:25.472Z,2.18
2023-03-05T05:05:27.264Z,2.17
2023-03-05T05:06:28.960Z,2.15
2023-03-05T05:07:30.678Z,2.14
2023-03-05T05:08:32.413Z,2.13
2023-03-05T05:09:34.181Z,2.12
2023-03-05T05:10:35.884Z,2.1
2023-03-05T05:11:37.633Z,2.1
2023-03-05T05:12:39.366Z,2.09
2023-03-05T05:13:41.069Z,2.07
2023-03-05T05:14:42.821Z,2.07
2023-03-05T05:15:44.558Z,2.05
2023-03-05T05:16:46.288Z,2.03
2023-03-05T05:17:48.067Z,2.03
2023-03-05T05:18:49.743Z,2.01
2023-03-05T05:19:51.484Z,2
2023-03-05T05:20:53.230Z,2
2023-03-05T05:21:54.976Z,1.98
2023-03-05T05:22:56.689Z,1.96
2023-03-05T05:23:58.453Z,1.95
2023-03-05T05:25:00.160Z,1.94
2023-03-05T05:26:01.889Z,1.93
2023-03-05T05:27:03.647Z,1.93
2023-03-05T05:28:05.371Z,1.91
2023-03-05T05:29:07.082Z,1.9
2023-03-05T05:30:09.013Z,1.88
2023-03-05T05:31:10.597Z,1.88
2023-03-05T05:32:12.405Z,1.86
2023-03-05T05:33:14.040Z,1.87
2023-03-05T05:34:15.774Z,1.85
2023-03-05T05:35:17.697Z,1.85
2023-03-05T05:36:19.325Z,1.84
2023-03-05T05:37:20.966Z,1.82
2023-03-05T05:38:22.698Z,1.82
2023-03-05T05:39:24.440Z,1.81
2023-03-05T05:40:26.180Z,1.8
2023-03-05T05:41:27.887Z,1.79
2023-03-05T05:42:29.650Z,1.8
2023-03-05T05:43:31.378Z,1.79
2023-03-05T05:44:33.126Z,1.77
2023-03-05T05:45:35.009Z,1.77
2023-03-05T05:46:36.637Z,1.76
2023-03-05T05:47:38.293Z,1.75
2023-03-05T05:48:40.053Z,1.75
2023-03-05T05:49:41.774Z,1.75
2023-03-05T05:50:43.504Z,1.74
2023-03-05T05:51:45.299Z,1.73
2023-03-05T05:52:46.963Z,1.72
2023-03-05T05:53:48.696Z,1.71
2023-03-05T05:54:50.422Z,1.71
2023-03-05T05:55:52.167Z,1.71
2023-03-05T05:56:53.917Z,1.7
2023-03-05T05:57:55.658Z,1.7
2023-03-05T05:58:57.380Z,1.69
2023-03-05T05:59:59.101Z,1.69
2023-03-05T06:01:00.843Z,1.68
2023-03-05T06:02:02.762Z,1.67
2023-03-05T06:03:04.334Z,1.67
2023-03-05T06:04:06.056Z,1.67
2023-03-05T06:05:07.784Z,1.66
2023-03-05T06:06:09.507Z,1.65
2023-03-05T06:07:11.242Z,1.67
2023-03-05T06:08:12.984Z,1.66
2023-03-05T06:09:14.728Z,1.66
2023-03-05T06:10:16.456Z,1.65
2023-03-05T06:11:19.425Z,1.67
2023-03-05T06:12:19.929Z,1.67
2023-03-05T06:13:21.660Z,1.67
2023-03-05T06:14:23.377Z,1.66
2023-03-05T06:15:25.119Z,1.67
2023-03-05T06:16:26.914Z,1.68
2023-03-05T06:17:30.583Z,1.67
2023-03-05T06:18:30.302Z,1.69
2023-03-05T06:19:32.032Z,1.69
2023-03-05T06:20:33.788Z,1.69
2023-03-05T06:21:35.534Z,1.7
2023-03-05T06:22:37.262Z,1.71
2023-03-05T06:23:38.980Z,1.7
2023-03-05T06:24:40.740Z,1.7
2023-03-05T06:25:42.456Z,1.71
2023-03-05T06:26:44.175Z,1.72
2023-03-05T06:27:45.900Z,1.73
2023-03-05T06:28:47.647Z,1.72
2023-03-05T06:29:49.453Z,1.73
2023-03-05T06:30:51.132Z,1.73
2023-03-05T06:31:52.881Z,1.74
2023-03-05T06:32:54.586Z,1.74
2023-03-05T06:33:56.330Z,1.74
2023-03-05T06:34:58.054Z,1.75
2023-03-05T06:35:59.869Z,1.75
2023-03-05T06:37:01.518Z,1.74
2023-03-05T06:38:03.253Z,1.75
2023-03-05T06:39:04.996Z,1.75
2023-03-05T06:40:06.954Z,1.76
2023-03-05T06:41:08.589Z,1.76
2023-03-05T06:42:10.175Z,1.76
2023-03-05T06:43:11.914Z,1.76
2023-03-05T06:44:13.651Z,1.78
2023-03-05T06:45:15.376Z,1.77
2023-03-05T06:46:17.163Z,1.77
2023-03-05T06:47:18.902Z,1.77
2023-03-05T06:48:20.579Z,1.79
2023-03-05T06:49:22.327Z,1.79
2023-03-05T06:50:24.053Z,1.8
2023-03-05T06:51:25.787Z,1.8
2023-03-05T06:52:27.514Z,1.8
2023-03-05T06:53:29.242Z,1.81
2023-03-05T06:54:30.975Z,1.81
2023-03-05T06:55:32.709Z,1.82
2023-03-05T06:56:34.449Z,1.83
2023-03-05T06:57:36.172Z,1.84
2023-03-05T06:58:37.904Z,1.83
2023-03-05T06:59:39.638Z,1.84
2023-03-05T07:00:41.370Z,1.85
2023-03-05T07:01:43.104Z,1.86
2023-03-05T07:02:44.932Z,1.87
2023-03-05T07:03:46.568Z,1.87
2023-03-05T07:04:48.309Z,1.88
2023-03-05T07:05:50.054Z,1.89
2023-03-05T07:06:51.800Z,1.9
2023-03-05T07:07:53.501Z,1.91
2023-03-05T07:08:55.242Z,1.91
2023-03-05T07:09:56.987Z,1.92
2023-03-05T07:10:58.709Z,1.94
2023-03-05T07:12:00.439Z,1.95
2023-03-05T07:13:02.182Z,1.95
2023-03-05T07:14:03.910Z,1.97
2023-03-05T07:15:05.660Z,1.98
2023-03-05T07:16:07.474Z,1.98
2023-03-05T07:17:09.118Z,1.99
2023-03-05T07:18:10.842Z,2
2023-03-05T07:19:12.569Z,2
2023-03-05T07:20:14.320Z,2.02
2023-03-05T07:21:16.050Z,2.03
2023-03-05T07:22:17.786Z,2.05
2023-03-05T07:23:19.510Z,2.06
2023-03-05T07:24:21.259Z,2.08
2023-03-05T07:25:23.091Z,2.09
2023-03-05T07:26:24.760Z,2.1
2023-03-05T07:27:26.452Z,2.12
2023-03-05T07:28:28.180Z,2.13
2023-03-05T07:29:29.925Z,2.14
2023-03-05T07:30:31.635Z,2.16
2023-03-05T07:31:33.419Z,2.17
2023-03-05T07:32:35.139Z,2.17
2023-03-05T07:33:36.855Z,2.19
2023-03-05T07:34:38.582Z,2.21
2023-03-05T07:35:40.352Z,2.23
2023-03-05T07:36:42.041Z,2.24
2023-03-05T07:37:43.792Z,2.25
2023-03-05T07:38:45.517Z,2.27
2023-03-05T07:39:47.427Z,2.28
2023-03-05T07:40:48.968Z,2.29
2023-03-05T07:41:50.953Z,2.31
2023-03-05T07:42:52.436Z,2.32
2023-03-05T07:43:54.184Z,2.33
2023-03-05T07:44:55.928Z,2.34
2023-03-05T07:45:57.727Z,2.36
2023-03-05T07:46:59.396Z,2.37
2023-03-05T07:48:01.282Z,2.4
2023-03-05T07:49:02.846Z,2.41
2023-03-05T07:50:04.604Z,2.43
2023-03-05T07:51:06.317Z,2.45
2023-03-05T07:52:08.064Z,2.47
2023-03-05T07:53:09.801Z,2.48
2023-03-05T07:54:11.531Z,2.51
2023-03-05T07:55:13.276Z,2.53
2023-03-05T07:56:15.002Z,2.54
2023-03-05T07:57:16.756Z,2.57
2023-03-05T07:58:18.463Z,2.58
2023-03-05T07:59:20.190Z,2.6
2023-03-05T08:00:21.931Z,2.62
2023-03-05T08:01:23.662Z,2.64
2023-03-05T08:02:25.508Z,2.67
2023-03-05T08:03:27.128Z,2.69
2023-03-05T08:04:28.953Z,2.71
2023-03-05T08:05:30.829Z,2.73
2023-03-05T08:06:32.355Z,2.75
2023-03-05T08:07:34.115Z,2.77
2023-03-05T08:08:35.790Z,2.78
2023-03-05T08:09:37.521Z,2.8
2023-03-05T08:10:39.265Z,2.83
2023-03-05T08:11:41.009Z,2.85
2023-03-05T08:12:42.736Z,2.87
2023-03-05T08:13:44.452Z,2.88
2023-03-05T08:14:46.191Z,2.89
2023-03-05T08:15:47.966Z,2.91
2023-03-05T08:16:49.691Z,2.92
2023-03-05T08:17:51.395Z,2.94
2023-03-05T08:18:53.131Z,2.96
2023-03-05T08:19:54.864Z,2.98
2023-03-05T08:20:56.601Z,3
2023-03-05T08:21:58.328Z,3.01
2023-03-05T08:23:00.099Z,3.02
2023-03-05T08:24:01.793Z,3.04
2023-03-05T08:25:03.534Z,3.06
2023-03-05T08:26:05.257Z,3.08
2023-03-05T08:27:07.049Z,3.09
2023-03-05T08:28:08.724Z,3.11
2023-03-05T08:29:10.480Z,3.12
2023-03-05T08:30:12.197Z,3.15
2023-03-05T08:31:13.958Z,3.17
2023-03-05T08:32:15.718Z,3.19
2023-03-05T08:33:17.416Z,3.21
2023-03-05T08:34:19.149Z,3.23
2023-03-05T08:35:20.884Z,3.25
2023-03-05T08:36:22.608Z,3.27
2023-03-05T08:37:24.349Z,3.3
2023-03-05T08:38:26.065Z,3.33
2023-03-05T08:39:27.804Z,3.35
2023-03-05T08:40:29.543Z,3.37
2023-03-05T08:41:31.279Z,3.4
2023-03-05T08:42:33.074Z,3.42
2023-03-05T08:43:34.755Z,3.44
2023-03-05T08:44:36.465Z,3.46
2023-03-05T08:45:38.204Z,3.49
2023-03-05T08:46:40.222Z,3.5
2023-03-05T08:47:41.680Z,3.52
2023-03-05T08:48:43.428Z,3.54
2023-03-05T08:49:45.146Z,3.56
2023-03-05T08:50:46.880Z,3.57
2023-03-05T08:51:48.617Z,3.59
2023-03-05T08:52:50.384Z,3.6
2023-03-05T08:53:52.082Z,3.6
2023-03-05T08:54:53.842Z,3.62
2023-03-05T08:55:55.566Z,3.63
2023-03-05T08:56:57.298Z,3.64
2023-03-05T08:57:59.016Z,3.65
2023-03-05T08:59:00.750Z,3.66
2023-03-05T09:00:02.489Z,3.67
2023-03-05T09:01:04.236Z,3.67
2023-03-05T09:02:06.082Z,3.67
2023-03-05T09:03:08.086Z,3.67
2023-03-05T09:04:09.422Z,3.66
2023-03-05T09:05:11.164Z,3.66
2023-03-05T09:06:12.925Z,3.66
2023-03-05T09:07:14.653Z,3.65
2023-03-05T09:08:16.340Z,3.64
2023-03-05T09:09:18.089Z,3.64
2023-03-05T09:10:19.824Z,3.65
2023-03-05T09:11:21.608Z,3.65
2023-03-05T09:12:23.309Z,3.65
2023-03-05T09:13:25.023Z,3.65
2023-03-05T09:14:26.775Z,3.65
2023-03-05T09:15:28.495Z,3.65
2023-03-05T09:16:30.272Z,3.65
2023-03-05T09:17:32.114Z,3.64
2023-03-05T09:18:33.691Z,3.64
2023-03-05T09:19:35.428Z,3.63
2023-03-05T09:20:37.182Z,3.62
2023-03-05T09:21:38.903Z,3.62
2023-03-05T09:22:40.708Z,3.61
2023-03-05T09:23:42.480Z,3.61
2023-03-05T09:24:44.102Z,3.6
2023-03-05T09:25:45.818Z,3.6
2023-03-05T09:26:47.571Z,3.58
2023-03-05T09:27:49.336Z,3.58
2023-03-05T09:28:51.034Z,3.57
2023-03-05T09:29:52.765Z,3.57
2023-03-05T09:30:54.508Z,3.56
2023-03-05T09:31:56.358Z,3.56
2023-03-05T09:32:57.989Z,3.55
2023-03-05T09:33:59.706Z,3.55
2023-03-05T09:35:01.419Z,3.54
2023-03-05T09:36:03.348Z,3.55
2023-03-05T09:37:04.913Z,3.54
2023-03-05T09:38:06.629Z,3.55
2023-03-05T09:39:08.469Z,3.54
2023-03-05T09:40:10.108Z,3.53
2023-03-05T09:41:11.840Z,3.53
2023-03-05T09:42:13.566Z,3.52
2023-03-05T09:43:15.312Z,3.52
2023-03-05T09:44:17.052Z,3.53
2023-03-05T09:45:18.870Z,3.53
2023-03-05T09:46:20.493Z,3.53
2023-03-05T09:47:22.239Z,3.53
2023-03-05T09:48:23.990Z,3.52
2023-03-05T09:49:25.704Z,3.53
2023-03-05T09:50:27.433Z,3.54
2023-03-05T09:51:29.180Z,3.54
2023-03-05T09:52:30.955Z,3.55
2023-03-05T09:53:32.638Z,3.55
2023-03-05T09:54:34.365Z,3.55
2023-03-05T09:55:36.112Z,3.56
2023-03-05T09:56:37.846Z,3.57
2023-03-05T09:57:39.599Z,3.58
2023-03-05T09:58:41.326Z,3.58
2023-03-05T09:59:43.057Z,3.6
2023-03-05T10:00:44.798Z,3.63
2023-03-05T10:01:46.535Z,3.64
2023-03-05T10:02:48.448Z,3.67
2023-03-05T10:03:50.111Z,3.69
2023-03-05T10:04:51.732Z,3.71
2023-03-05T10:05:53.451Z,3.73
2023-03-05T10:06:55.167Z,3.74
2023-03-05T10:07:56.922Z,3.76
2023-03-05T10:08:58.689Z,3.77
2023-03-05T10:10:00.414Z,3.79
2023-03-05T10:11:02.112Z,3.8
2023-03-05T10:12:03.862Z,3.81
2023-03-05T10:13:05.601Z,3.82
2023-03-05T10:14:07.332Z,3.83
2023-03-05T10:15:09.061Z,3.85
2023-03-05T10:16:10.882Z,3.87
2023-03-05T10:17:12.531Z,3.89
2023-03-05T10:18:14.248Z,3.91
2023-03-05T10:19:16.045Z,3.94
2023-03-05T10:20:17.725Z,3.96
2023-03-05T10:21:19.454Z,3.98
2023-03-05T10:22:21.220Z,4
2023-03-05T10:23:22.926Z,4.01
2023-03-05T10:24:24.659Z,4.02
2023-03-05T10:25:26.387Z,4.04
2023-03-05T10:26:28.112Z,4.05
2023-03-05T10:27:29.999Z,4.07
2023-03-05T10:28:31.565Z,4.09
2023-03-05T10:29:33.338Z,4.1
2023-03-05T10:30:35.075Z,4.11
2023-03-05T10:31:36.859Z,4.13
2023-03-05T10:32:38.590Z,4.14
2023-03-05T10:33:40.256Z,4.17
2023-03-05T10:34:41.996Z,4.19
2023-03-05T10:35:43.769Z,4.2
2023-03-05T10:36:45.470Z,4.21
2023-03-05T10:37:47.222Z,4.22
2023-03-05T10:38:48.925Z,4.22
2023-03-05T10:39:50.658Z,4.22
2023-03-05T10:40:52.389Z,4.23
2023-03-05T10:41:54.131Z,4.22
2023-03-05T10:42:55.844Z,4.22
2023-03-05T10:43:57.580Z,4.22
2023-03-05T10:44:59.341Z,4.22
2023-03-05T10:46:01.112Z,4.21
2023-03-05T10:47:02.811Z,4.2
2023-03-05T10:48:04.537Z,4.18
2023-03-05T10:49:06.268Z,4.17
2023-03-05T10:50:08.009Z,4.15
2023-03-05T10:51:09.716Z,4.16
2023-03-05T10:52:11.461Z,4.14
2023-03-05T10:53:13.210Z,4.11
2023-03-05T10:54:14.927Z,4.11
2023-03-05T10:55:16.678Z,4.09
2023-03-05T10:56:18.393Z,4.1
2023-03-05T10:57:20.151Z,4.1
2023-03-05T10:58:24.571Z,4.09
2023-03-05T10:59:23.587Z,4.09
2023-03-05T11:00:25.423Z,4.08
2023-03-05T11:01:27.169Z,4.07
2023-03-05T11:02:28.973Z,4.08
2023-03-05T11:03:30.534Z,4.07
2023-03-05T11:04:32.284Z,4.07
2023-03-05T11:05:33.995Z,4.05
2023-03-05T11:06:35.725Z,4.04
2023-03-05T11:07:37.463Z,4.03
2023-03-05T11:08:39.198Z,4.03
2023-03-05T11:09:40.918Z,4.04
2023-03-05T11:10:42.671Z,4.05
2023-03-05T11:11:44.426Z,4.05
2023-03-05T11:12:46.142Z,4.05
2023-03-05T11:13:47.844Z,4.05
2023-03-05T11:14:49.596Z,4.04
2023-03-05T11:15:51.387Z,4.04
2023-03-05T11:16:53.097Z,4.03
2023-03-05T11:17:54.817Z,4.03
2023-03-05T11:18:56.538Z,4.02
2023-03-05T11:19:58.239Z,4.02
2023-03-05T11:20:59.991Z,4.03
2023-03-05T11:22:01.737Z,4.03
2023-03-05T11:23:03.452Z,4.03
2023-03-05T11:24:05.302Z,4.03
2023-03-05T11:25:06.933Z,4.02
2023-03-05T11:26:08.656Z,4.03
2023-03-05T11:27:10.417Z,4.04
2023-03-05T11:28:13.797Z,4.04
2023-03-05T11:29:13.859Z,4.05
2023-03-05T11:30:15.613Z,4.07
2023-03-05T11:31:17.361Z,4.07
2023-03-05T11:32:19.360Z,4.07
2023-03-05T11:33:20.807Z,4.09
2023-03-05T11:34:22.539Z,4.08
2023-03-05T11:35:24.341Z,4.1
2023-03-05T11:36:26.013Z,4.09
2023-03-05T11:37:27.735Z,4.1
2023-03-05T11:38:29.483Z,4.1
2023-03-05T11:39:31.211Z,4.1
2023-03-05T11:40:32.958Z,4.12
2023-03-05T11:41:34.687Z,4.12
2023-03-05T11:42:36.428Z,4.14
2023-03-05T11:43:38.151Z,4.15
2023-03-05T11:44:39.870Z,4.16
2023-03-05T11:45:41.631Z,4.16
2023-03-05T11:46:43.348Z,4.15
2023-03-05T11:47:45.100Z,4.16
2023-03-05T11:48:46.821Z,4.17
2023-03-05T11:49:48.531Z,4.17
2023-03-05T11:50:50.499Z,4.17
2023-03-05T11:51:52.007Z,4.17
2023-03-05T11:52:53.814Z,4.17
2023-03-05T11:53:55.457Z,4.17
2023-03-05T11:54:57.220Z,4.18
2023-03-05T11:55:58.938Z,4.17
2023-03-05T11:57:00.681Z,4.18
2023-03-05T11:58:02.418Z,4.2
2023-03-05T11:59:04.156Z,4.19
2023-03-05T12:00:05.884Z,4.2
2023-03-05T12:01:07.644Z,4.2
2023-03-05T12:02:09.345Z,4.19
2023-03-05T12:03:11.132Z,4.19
2023-03-05T12:04:12.887Z,4.2
2023-03-05T12:05:14.809Z,4.2
2023-03-05T12:06:16.296Z,4.2
2023-03-05T12:07:18.031Z,4.2
2023-03-05T12:08:19.744Z,4.2
2023-03-05T12:09:21.492Z,4.2
2023-03-05T12:10:23.224Z,4.2
2023-03-05T12:11:24.957Z,4.19
2023-03-05T12:12:26.712Z,4.19
2023-03-05T12:13:28.429Z,4.19
2023-03-05T12:14:30.158Z,4.19
2023-03-05T12:15:31.909Z,4.19
2023-03-05T12:16:33.687Z,4.19
2023-03-05T12:17:35.384Z,4.19
2023-03-05T12:18:37.111Z,4.21
2023-03-05T12:19:38.838Z,4.2
2023-03-05T12:20:40.579Z,4.2
2023-03-05T12:21:42.301Z,4.2
2023-03-05T12:22:44.552Z,4.23
2023-03-05T12:23:45.749Z,4.24
2023-03-05T12:24:47.504Z,4.27
2023-03-05T12:25:49.253Z,4.26
2023-03-05T12:26:50.962Z,4.28
2023-03-05T12:27:52.712Z,4.27
2023-03-05T12:28:54.442Z,4.27
2023-03-05T12:29:56.172Z,4.3
2023-03-05T12:30:57.886Z,4.32
2023-03-05T12:31:59.648Z,4.33
2023-03-05T12:33:01.373Z,4.36
2023-03-05T12:34:03.418Z,4.37
2023-03-05T12:35:04.832Z,4.39
2023-03-05T12:36:06.551Z,4.42
2023-03-05T12:37:08.310Z,4.44
2023-03-05T12:38:25.894Z,4.47
2023-03-05T12:39:11.782Z,4.49
2023-03-05T12:40:13.503Z,4.51
2023-03-05T12:41:15.244Z,4.53
2023-03-05T12:42:16.955Z,4.56
2023-03-05T12:43:18.690Z,4.57
2023-03-05T12:44:20.436Z,4.58
2023-03-05T12:45:22.180Z,4.6
2023-03-05T12:46:23.994Z,4.61
2023-03-05T12:47:25.817Z,4.63
2023-03-05T12:48:27.399Z,4.64
2023-03-05T12:49:29.097Z,4.65
2023-03-05T12:50:30.822Z,4.65
2023-03-05T12:51:32.573Z,4.67
2023-03-05T12:52:34.380Z,4.69
2023-03-05T12:53:36.066Z,4.71
2023-03-05T12:54:37.771Z,4.72
2023-03-05T12:55:39.514Z,4.74
2023-03-05T12:56:41.243Z,4.76
2023-03-05T12:57:42.962Z,4.78
2023-03-05T12:58:44.702Z,4.8
2023-03-05T12:59:46.444Z,4.82
2023-03-05T13:00:48.231Z,4.85
2023-03-05T13:01:49.943Z,4.85
2023-03-05T13:02:51.665Z,4.87
2023-03-05T13:03:53.431Z,4.88
2023-03-05T13:04:55.109Z,4.88
2023-03-05T13:05:56.845Z,4.9
2023-03-05T13:06:58.557Z,4.9
2023-03-05T13:08:00.308Z,4.91
2023-03-05T13:09:02.046Z,4.91
2023-03-05T13:10:03.757Z,4.93
2023-03-05T13:11:05.482Z,4.93
2023-03-05T13:12:07.356Z,4.94
2023-03-05T13:13:08.968Z,4.94
2023-03-05T13:14:10.723Z,4.94
2023-03-05T13:15:12.450Z,4.97
2023-03-05T13:16:14.248Z,4.97
2023-03-05T13:17:15.901Z,4.99
2023-03-05T13:18:17.645Z,5
2023-03-05T13:19:19.399Z,4.99
2023-03-05T13:20:21.093Z,5.01
2023-03-05T13:21:22.853Z,5.02
2023-03-05T13:22:24.820Z,5.02
2023-03-05T13:23:27.721Z,5.03
2023-03-05T13:24:28.078Z,5.03
2023-03-05T13:25:29.783Z,5.06
2023-03-05T13:26:31.520Z,5.07
2023-03-05T13:27:33.253Z,5.1
2023-03-05T13:28:34.984Z,5.14
2023-03-05T13:29:36.730Z,5.16
2023-03-05T13:30:38.439Z,5.19
2023-03-05T13:31:40.210Z,5.22
2023-03-05T13:32:42.036Z,5.23
2023-03-05T13:33:43.658Z,5.25
2023-03-05T13:34:47.834Z,5.27
2023-03-05T13:35:47.156Z,5.29
2023-03-05T13:36:48.845Z,5.28
2023-03-05T13:37:50.634Z,5.28
2023-03-05T13:38:52.462Z,5.26
2023-03-05T13:39:54.045Z,5.26
2023-03-05T13:40:57.560Z,5.26
2023-03-05T13:41:57.512Z,5.24
2023-03-05T13:42:59.235Z,5.22
2023-03-05T13:44:00.988Z,5.21
2023-03-05T13:45:02.751Z,5.19
2023-03-05T13:46:04.525Z,5.18